sensor_id;sensor_type;location;lat;lon;timestamp;temperature;humidity
18126;DHT22;53956;52.442;13.284;2023-08-06T00:00:15;20.90;99.90
18126;DHT22;53956;52.442;13.284;2023-08-06T00:02:41;21.00;99.90
18126;DHT22;53956;52.442;13.284;2023-08-06T00:05:08;21.00;99.90
18126;DHT22;53956;52.442;13.284;2023-08-06T00:07:36;20.80;99.90
18126;DHT22;53956;52.442;13.284;2023-08-06T00:10:03;20.70;99.90
18126;DHT22;53956;52.442;13.284;2023-08-06T00:12:30;21.10;99.90
18126;DHT22;53956;52.442;13.284;2023-08-06T00:41:29;21.00;99.90
18126;DHT22;53956;52.442;13.284;2023-08-06T00:43:56;21.00;99.90
18126;DHT22;53956;52.442;13.284;2023-08-06T00:46:22;20.90;99.90
18126;DHT22;53956;52.442;13.284;2023-08-06T00:48:50;20.90;99.90
18126;DHT22;53956;52.442;13.284;2023-08-06T00:51:17;20.90;99.90
18126;DHT22;53956;52.442;13.284;2023-08-06T00:53:44;20.60;99.90
18126;DHT22;53956;52.442;13.284;2023-08-06T00:56:12;20.80;99.90
18126;DHT22;53956;52.442;13.284;2023-08-06T01:01:15;21.00;99.90
18126;DHT22;53956;52.442;13.284;2023-08-06T01:03:43;21.00;99.90
18126;DHT22;53956;52.442;13.284;2023-08-06T01:14:12;20.80;99.90
18126;DHT22;53956;52.442;13.284;2023-08-06T01:16:42;20.60;99.90
18126;DHT22;53956;52.442;13.284;2023-08-06T01:19:16;20.80;99.90
18126;DHT22;53956;52.442;13.284;2023-08-06T01:21:44;20.90;99.90
18126;DHT22;53956;52.442;13.284;2023-08-06T01:24:11;20.50;99.90
18126;DHT22;53956;52.442;13.284;2023-08-06T01:26:42;20.30;99.90
18126;DHT22;53956;52.442;13.284;2023-08-06T01:29:15;20.60;99.90
18126;DHT22;53956;52.442;13.284;2023-08-06T01:32:10;20.70;99.90
18126;DHT22;53956;52.442;13.284;2023-08-06T01:34:43;20.50;99.90
18126;DHT22;53956;52.442;13.284;2023-08-06T01:42:58;20.60;99.90
18126;DHT22;53956;52.442;13.284;2023-08-06T01:45:24;20.70;99.90
18126;DHT22;53956;52.442;13.284;2023-08-06T01:47:51;20.80;99.90
18126;DHT22;53956;52.442;13.284;2023-08-06T01:50:18;20.80;99.90
18126;DHT22;53956;52.442;13.284;2023-08-06T01:52:45;20.70;99.90
18126;DHT22;53956;52.442;13.284;2023-08-06T01:55:11;20.80;99.90
18126;DHT22;53956;52.442;13.284;2023-08-06T02:00:30;20.90;99.90
18126;DHT22;53956;52.442;13.284;2023-08-06T02:02:57;20.90;99.90
18126;DHT22;53956;52.442;13.284;2023-08-06T02:05:23;20.90;99.90
18126;DHT22;53956;52.442;13.284;2023-08-06T02:07:50;20.80;99.90
18126;DHT22;53956;52.442;13.284;2023-08-06T02:10:17;20.90;99.90
18126;DHT22;53956;52.442;13.284;2023-08-06T02:45:06;20.30;99.90
18126;DHT22;53956;52.442;13.284;2023-08-06T02:47:34;20.50;99.90
18126;DHT22;53956;52.442;13.284;2023-08-06T02:50:01;20.30;99.90
18126;DHT22;53956;52.442;13.284;2023-08-06T02:52:29;20.40;99.90
18126;DHT22;53956;52.442;13.284;2023-08-06T02:54:56;20.50;99.90
18126;DHT22;53956;52.442;13.284;2023-08-06T03:10:46;20.60;99.90
18126;DHT22;53956;52.442;13.284;2023-08-06T03:13:13;20.50;99.90
18126;DHT22;53956;52.442;13.284;2023-08-06T03:15:40;20.60;99.90
18126;DHT22;53956;52.442;13.284;2023-08-06T03:18:09;20.60;99.90
18126;DHT22;53956;52.442;13.284;2023-08-06T03:28:44;20.40;99.90
18126;DHT22;53956;52.442;13.284;2023-08-06T03:31:11;20.40;99.90
18126;DHT22;53956;52.442;13.284;2023-08-06T03:33:41;20.40;99.90
18126;DHT22;53956;52.442;13.284;2023-08-06T03:36:13;20.60;99.90
18126;DHT22;53956;52.442;13.284;2023-08-06T03:38:40;20.30;99.90
18126;DHT22;53956;52.442;13.284;2023-08-06T03:41:09;20.30;99.90
18126;DHT22;53956;52.442;13.284;2023-08-06T03:52:07;20.30;99.90
18126;DHT22;53956;52.442;13.284;2023-08-06T03:55:04;20.30;99.90
18126;DHT22;53956;52.442;13.284;2023-08-06T04:08:18;20.20;99.90
18126;DHT22;53956;52.442;13.284;2023-08-06T04:26:58;20.20;99.90
18126;DHT22;53956;52.442;13.284;2023-08-06T04:29:41;20.20;99.90
18126;DHT22;53956;52.442;13.284;2023-08-06T04:40:11;20.00;99.90
18126;DHT22;53956;52.442;13.284;2023-08-06T04:48:04;19.80;99.90
18126;DHT22;53956;52.442;13.284;2023-08-06T04:58:41;20.00;99.90
18126;DHT22;53956;52.442;13.284;2023-08-06T05:01:07;20.00;99.90
18126;DHT22;53956;52.442;13.284;2023-08-06T05:03:35;19.90;99.90
18126;DHT22;53956;52.442;13.284;2023-08-06T05:06:02;20.00;99.90
18126;DHT22;53956;52.442;13.284;2023-08-06T05:08:29;20.00;99.90
18126;DHT22;53956;52.442;13.284;2023-08-06T05:11:06;20.10;99.90
18126;DHT22;53956;52.442;13.284;2023-08-06T05:13:39;19.80;99.90
18126;DHT22;53956;52.442;13.284;2023-08-06T05:16:06;19.90;99.90
18126;DHT22;53956;52.442;13.284;2023-08-06T05:18:32;20.00;99.90
18126;DHT22;53956;52.442;13.284;2023-08-06T05:21:01;20.00;99.90
18126;DHT22;53956;52.442;13.284;2023-08-06T05:23:28;20.10;99.90
18126;DHT22;53956;52.442;13.284;2023-08-06T05:25:54;19.70;99.90
18126;DHT22;53956;52.442;13.284;2023-08-06T05:41:47;20.00;99.90
18126;DHT22;53956;52.442;13.284;2023-08-06T05:44:14;20.10;99.90
18126;DHT22;53956;52.442;13.284;2023-08-06T05:46:40;20.10;99.90
18126;DHT22;53956;52.442;13.284;2023-08-06T05:49:07;20.20;99.90
18126;DHT22;53956;52.442;13.284;2023-08-06T05:51:33;19.90;99.90
18126;DHT22;53956;52.442;13.284;2023-08-06T05:54:00;20.00;99.90
18126;DHT22;53956;52.442;13.284;2023-08-06T05:56:26;20.10;99.90
18126;DHT22;53956;52.442;13.284;2023-08-06T06:15:08;20.20;99.90
18126;DHT22;53956;52.442;13.284;2023-08-06T06:17:35;20.20;99.90
18126;DHT22;53956;52.442;13.284;2023-08-06T06:20:01;20.00;99.90
18126;DHT22;53956;52.442;13.284;2023-08-06T06:22:29;19.90;99.90
18126;DHT22;53956;52.442;13.284;2023-08-06T06:24:56;20.00;99.90
18126;DHT22;53956;52.442;13.284;2023-08-06T06:33:05;20.30;99.90
18126;DHT22;53956;52.442;13.284;2023-08-06T06:59:23;20.40;99.90
18126;DHT22;53956;52.442;13.284;2023-08-06T07:01:50;20.50;99.90
18126;DHT22;53956;52.442;13.284;2023-08-06T07:04:16;20.50;99.90
18126;DHT22;53956;52.442;13.284;2023-08-06T07:06:43;20.50;99.90
18126;DHT22;53956;52.442;13.284;2023-08-06T07:09:16;20.50;99.90
18126;DHT22;53956;52.442;13.284;2023-08-06T07:11:50;20.50;99.90
18126;DHT22;53956;52.442;13.284;2023-08-06T07:30:41;20.50;99.90
18126;DHT22;53956;52.442;13.284;2023-08-06T07:33:08;20.60;99.90
18126;DHT22;53956;52.442;13.284;2023-08-06T07:35:35;20.70;99.90
18126;DHT22;53956;52.442;13.284;2023-08-06T07:38:02;20.60;99.90
18126;DHT22;53956;52.442;13.284;2023-08-06T07:40:29;20.60;99.90
18126;DHT22;53956;52.442;13.284;2023-08-06T07:48:20;20.60;99.90
18126;DHT22;53956;52.442;13.284;2023-08-06T08:28:53;20.90;99.90
18126;DHT22;53956;52.442;13.284;2023-08-06T08:31:20;20.80;99.90
18126;DHT22;53956;52.442;13.284;2023-08-06T08:33:46;20.90;99.90
18126;DHT22;53956;52.442;13.284;2023-08-06T08:36:13;20.80;99.90
18126;DHT22;53956;52.442;13.284;2023-08-06T08:38:40;20.80;99.90
18126;DHT22;53956;52.442;13.284;2023-08-06T08:41:10;20.80;99.90
18126;DHT22;53956;52.442;13.284;2023-08-06T08:46:55;20.90;99.90
18126;DHT22;53956;52.442;13.284;2023-08-06T08:50:35;20.90;99.90
18126;DHT22;53956;52.442;13.284;2023-08-06T08:52:58;21.00;99.90
18126;DHT22;53956;52.442;13.284;2023-08-06T08:55:41;21.00;99.90
18126;DHT22;53956;52.442;13.284;2023-08-06T09:15:11;21.10;99.90
18126;DHT22;53956;52.442;13.284;2023-08-06T09:18:11;21.30;99.90
18126;DHT22;53956;52.442;13.284;2023-08-06T09:20:38;21.20;99.90
18126;DHT22;53956;52.442;13.284;2023-08-06T09:23:07;21.20;99.90
18126;DHT22;53956;52.442;13.284;2023-08-06T09:25:38;21.20;99.90
18126;DHT22;53956;52.442;13.284;2023-08-06T09:36:12;21.20;99.90
18126;DHT22;53956;52.442;13.284;2023-08-06T09:44:02;21.20;99.90
18126;DHT22;53956;52.442;13.284;2023-08-06T09:46:29;21.40;99.90
18126;DHT22;53956;52.442;13.284;2023-08-06T09:48:58;21.50;99.90
18126;DHT22;53956;52.442;13.284;2023-08-06T09:51:26;21.50;99.90
18126;DHT22;53956;52.442;13.284;2023-08-06T09:53:53;21.50;99.90
18126;DHT22;53956;52.442;13.284;2023-08-06T09:56:20;21.50;99.90
18126;DHT22;53956;52.442;13.284;2023-08-06T10:13:15;21.40;99.90
18126;DHT22;53956;52.442;13.284;2023-08-06T10:15:43;21.30;99.90
18126;DHT22;53956;52.442;13.284;2023-08-06T10:18:11;21.30;99.90
18126;DHT22;53956;52.442;13.284;2023-08-06T10:20:38;21.30;99.90
18126;DHT22;53956;52.442;13.284;2023-08-06T10:23:06;21.40;99.90
18126;DHT22;53956;52.442;13.284;2023-08-06T10:25:34;21.40;99.90
18126;DHT22;53956;52.442;13.284;2023-08-06T10:44:14;21.50;99.90
18126;DHT22;53956;52.442;13.284;2023-08-06T10:46:40;21.70;99.90
18126;DHT22;53956;52.442;13.284;2023-08-06T10:49:07;21.60;99.90
18126;DHT22;53956;52.442;13.284;2023-08-06T10:51:34;21.60;99.90
18126;DHT22;53956;52.442;13.284;2023-08-06T10:54:02;21.60;99.90
18126;DHT22;53956;52.442;13.284;2023-08-06T10:56:29;21.60;99.90
18126;DHT22;53956;52.442;13.284;2023-08-06T10:58:56;21.60;99.90
18126;DHT22;53956;52.442;13.284;2023-08-06T11:01:28;21.60;99.90
18126;DHT22;53956;52.442;13.284;2023-08-06T11:03:55;21.70;99.90
18126;DHT22;53956;52.442;13.284;2023-08-06T11:06:22;21.70;99.90
18126;DHT22;53956;52.442;13.284;2023-08-06T11:08:51;21.60;99.90
18126;DHT22;53956;52.442;13.284;2023-08-06T11:30:11;21.60;99.90
18126;DHT22;53956;52.442;13.284;2023-08-06T11:32:45;21.50;99.90
18126;DHT22;53956;52.442;13.284;2023-08-06T11:35:13;21.50;99.90
18126;DHT22;53956;52.442;13.284;2023-08-06T11:37:44;21.50;99.90
18126;DHT22;53956;52.442;13.284;2023-08-06T11:40:11;21.50;99.90
18126;DHT22;53956;52.442;13.284;2023-08-06T12:30:28;21.60;99.90
18126;DHT22;53956;52.442;13.284;2023-08-06T12:32:54;21.60;99.90
18126;DHT22;53956;52.442;13.284;2023-08-06T12:35:21;21.60;99.90
18126;DHT22;53956;52.442;13.284;2023-08-06T12:37:48;21.50;99.90
18126;DHT22;53956;52.442;13.284;2023-08-06T12:40:16;21.50;99.90
18126;DHT22;53956;52.442;13.284;2023-08-06T12:42:43;21.40;99.90
18126;DHT22;53956;52.442;13.284;2023-08-06T12:45:10;21.30;99.90
18126;DHT22;53956;52.442;13.284;2023-08-06T12:47:38;21.20;99.90
18126;DHT22;53956;52.442;13.284;2023-08-06T12:50:05;21.10;99.90
18126;DHT22;53956;52.442;13.284;2023-08-06T12:52:32;21.00;99.90
18126;DHT22;53956;52.442;13.284;2023-08-06T12:54:58;20.90;99.90
18126;DHT22;53956;52.442;13.284;2023-08-06T12:57:25;20.90;99.90
18126;DHT22;53956;52.442;13.284;2023-08-06T12:59:52;20.90;99.90
18126;DHT22;53956;52.442;13.284;2023-08-06T13:02:19;20.70;99.90
18126;DHT22;53956;52.442;13.284;2023-08-06T13:04:47;20.60;99.90
18126;DHT22;53956;52.442;13.284;2023-08-06T13:07:14;20.60;99.90
18126;DHT22;53956;52.442;13.284;2023-08-06T13:09:41;20.50;99.90
18126;DHT22;53956;52.442;13.284;2023-08-06T13:12:07;20.40;99.90
18126;DHT22;53956;52.442;13.284;2023-08-06T13:14:34;20.50;99.90
18126;DHT22;53956;52.442;13.284;2023-08-06T13:17:01;20.50;99.90
18126;DHT22;53956;52.442;13.284;2023-08-06T13:19:27;20.60;99.90
18126;DHT22;53956;52.442;13.284;2023-08-06T13:22:03;20.60;99.90
18126;DHT22;53956;52.442;13.284;2023-08-06T13:24:32;20.60;99.90
18126;DHT22;53956;52.442;13.284;2023-08-06T13:26:58;20.60;99.90
18126;DHT22;53956;52.442;13.284;2023-08-06T13:29:26;20.50;99.90
18126;DHT22;53956;52.442;13.284;2023-08-06T13:31:53;20.40;99.90
18126;DHT22;53956;52.442;13.284;2023-08-06T13:34:20;20.40;99.90
18126;DHT22;53956;52.442;13.284;2023-08-06T13:36:46;20.40;99.90
18126;DHT22;53956;52.442;13.284;2023-08-06T13:39:14;20.40;99.90
18126;DHT22;53956;52.442;13.284;2023-08-06T13:41:42;20.40;99.90
18126;DHT22;53956;52.442;13.284;2023-08-06T13:44:09;20.40;99.90
18126;DHT22;53956;52.442;13.284;2023-08-06T13:46:39;20.50;99.90
18126;DHT22;53956;52.442;13.284;2023-08-06T13:49:06;20.50;99.90
18126;DHT22;53956;52.442;13.284;2023-08-06T13:51:32;20.50;99.90
18126;DHT22;53956;52.442;13.284;2023-08-06T13:54:01;20.50;99.90
18126;DHT22;53956;52.442;13.284;2023-08-06T13:56:29;20.60;99.90
18126;DHT22;53956;52.442;13.284;2023-08-06T13:58:56;20.50;99.90
18126;DHT22;53956;52.442;13.284;2023-08-06T14:01:22;20.60;99.90
18126;DHT22;53956;52.442;13.284;2023-08-06T14:03:49;20.70;99.90
18126;DHT22;53956;52.442;13.284;2023-08-06T14:06:16;20.60;99.90
18126;DHT22;53956;52.442;13.284;2023-08-06T14:08:42;20.60;99.90
18126;DHT22;53956;52.442;13.284;2023-08-06T14:11:09;20.60;99.90
18126;DHT22;53956;52.442;13.284;2023-08-06T14:13:37;20.70;99.90
18126;DHT22;53956;52.442;13.284;2023-08-06T14:16:04;20.70;99.90
18126;DHT22;53956;52.442;13.284;2023-08-06T14:18:30;20.80;99.90
18126;DHT22;53956;52.442;13.284;2023-08-06T14:20:57;20.90;99.90
18126;DHT22;53956;52.442;13.284;2023-08-06T14:23:23;20.80;99.90
18126;DHT22;53956;52.442;13.284;2023-08-06T14:25:50;21.00;99.90
18126;DHT22;53956;52.442;13.284;2023-08-06T14:28:17;20.90;99.90
18126;DHT22;53956;52.442;13.284;2023-08-06T14:30:45;20.90;99.90
18126;DHT22;53956;52.442;13.284;2023-08-06T14:33:11;20.80;99.90
18126;DHT22;53956;52.442;13.284;2023-08-06T14:35:38;20.90;99.90
18126;DHT22;53956;52.442;13.284;2023-08-06T14:38:05;20.90;99.90
18126;DHT22;53956;52.442;13.284;2023-08-06T14:40:31;20.90;99.90
18126;DHT22;53956;52.442;13.284;2023-08-06T14:43:00;20.90;99.90
18126;DHT22;53956;52.442;13.284;2023-08-06T14:45:28;20.90;99.90
18126;DHT22;53956;52.442;13.284;2023-08-06T14:47:56;20.90;99.90
18126;DHT22;53956;52.442;13.284;2023-08-06T14:50:23;20.90;99.90
18126;DHT22;53956;52.442;13.284;2023-08-06T14:52:49;21.00;99.90
18126;DHT22;53956;52.442;13.284;2023-08-06T14:55:22;20.90;99.90
18126;DHT22;53956;52.442;13.284;2023-08-06T14:57:49;20.90;99.90
18126;DHT22;53956;52.442;13.284;2023-08-06T15:00:16;20.90;99.90
18126;DHT22;53956;52.442;13.284;2023-08-06T15:02:42;21.00;99.90
18126;DHT22;53956;52.442;13.284;2023-08-06T15:05:10;21.00;99.90
18126;DHT22;53956;52.442;13.284;2023-08-06T15:07:37;20.90;99.90
18126;DHT22;53956;52.442;13.284;2023-08-06T15:10:05;20.90;99.90
18126;DHT22;53956;52.442;13.284;2023-08-06T15:12:32;20.90;99.90
18126;DHT22;53956;52.442;13.284;2023-08-06T15:14:58;21.00;99.90
18126;DHT22;53956;52.442;13.284;2023-08-06T15:17:26;21.00;99.90
18126;DHT22;53956;52.442;13.284;2023-08-06T15:19:56;21.10;99.90
18126;DHT22;53956;52.442;13.284;2023-08-06T15:22:24;20.90;99.90
18126;DHT22;53956;52.442;13.284;2023-08-06T15:24:50;21.00;99.90
18126;DHT22;53956;52.442;13.284;2023-08-06T15:27:17;21.00;99.90
18126;DHT22;53956;52.442;13.284;2023-08-06T15:29:44;21.00;99.90
18126;DHT22;53956;52.442;13.284;2023-08-06T15:32:10;20.90;99.90
18126;DHT22;53956;52.442;13.284;2023-08-06T15:34:38;20.80;99.90
18126;DHT22;53956;52.442;13.284;2023-08-06T15:37:05;20.80;99.90
18126;DHT22;53956;52.442;13.284;2023-08-06T15:39:34;20.80;99.90
18126;DHT22;53956;52.442;13.284;2023-08-06T15:42:01;20.80;99.90
18126;DHT22;53956;52.442;13.284;2023-08-06T15:44:28;20.80;99.90
18126;DHT22;53956;52.442;13.284;2023-08-06T15:46:55;20.80;99.90
18126;DHT22;53956;52.442;13.284;2023-08-06T15:49:21;20.70;99.90
18126;DHT22;53956;52.442;13.284;2023-08-06T15:51:48;20.60;99.90
18126;DHT22;53956;52.442;13.284;2023-08-06T15:54:15;20.70;99.90
18126;DHT22;53956;52.442;13.284;2023-08-06T15:56:43;20.70;99.90
18126;DHT22;53956;52.442;13.284;2023-08-06T15:59:26;20.60;99.90
18126;DHT22;53956;52.442;13.284;2023-08-06T16:01:53;20.70;99.90
18126;DHT22;53956;52.442;13.284;2023-08-06T16:04:23;20.60;99.90
18126;DHT22;53956;52.442;13.284;2023-08-06T16:06:49;20.60;99.90
18126;DHT22;53956;52.442;13.284;2023-08-06T16:09:16;20.60;99.90
18126;DHT22;53956;52.442;13.284;2023-08-06T16:11:45;20.70;99.90
18126;DHT22;53956;52.442;13.284;2023-08-06T16:14:11;20.60;99.90
18126;DHT22;53956;52.442;13.284;2023-08-06T16:16:38;20.70;99.90
18126;DHT22;53956;52.442;13.284;2023-08-06T16:19:05;20.70;99.90
18126;DHT22;53956;52.442;13.284;2023-08-06T16:21:31;20.70;99.90
18126;DHT22;53956;52.442;13.284;2023-08-06T16:23:58;20.60;99.90
18126;DHT22;53956;52.442;13.284;2023-08-06T16:26:24;20.70;99.90
18126;DHT22;53956;52.442;13.284;2023-08-06T16:28:52;20.60;99.90
18126;DHT22;53956;52.442;13.284;2023-08-06T16:31:19;20.70;99.90
18126;DHT22;53956;52.442;13.284;2023-08-06T16:33:46;20.60;99.90
18126;DHT22;53956;52.442;13.284;2023-08-06T16:36:12;20.70;99.90
18126;DHT22;53956;52.442;13.284;2023-08-06T16:38:39;20.70;99.90
18126;DHT22;53956;52.442;13.284;2023-08-06T16:41:06;20.70;99.90
18126;DHT22;53956;52.442;13.284;2023-08-06T16:43:32;20.70;99.90
18126;DHT22;53956;52.442;13.284;2023-08-06T16:46:00;20.60;99.90
18126;DHT22;53956;52.442;13.284;2023-08-06T16:48:28;20.60;99.90
18126;DHT22;53956;52.442;13.284;2023-08-06T16:50:58;20.70;99.90
18126;DHT22;53956;52.442;13.284;2023-08-06T16:53:25;20.60;99.90
18126;DHT22;53956;52.442;13.284;2023-08-06T16:55:53;20.70;99.90
18126;DHT22;53956;52.442;13.284;2023-08-06T16:58:19;20.70;99.90
18126;DHT22;53956;52.442;13.284;2023-08-06T17:00:47;20.60;99.90
18126;DHT22;53956;52.442;13.284;2023-08-06T17:03:16;20.50;99.90
18126;DHT22;53956;52.442;13.284;2023-08-06T17:05:43;20.50;99.90
18126;DHT22;53956;52.442;13.284;2023-08-06T17:08:10;20.50;99.90
18126;DHT22;53956;52.442;13.284;2023-08-06T17:10:37;20.60;99.90
18126;DHT22;53956;52.442;13.284;2023-08-06T17:13:04;20.50;99.90
18126;DHT22;53956;52.442;13.284;2023-08-06T17:15:31;20.60;99.90
18126;DHT22;53956;52.442;13.284;2023-08-06T17:17:58;20.60;99.90
18126;DHT22;53956;52.442;13.284;2023-08-06T17:20:26;20.60;99.90
18126;DHT22;53956;52.442;13.284;2023-08-06T17:22:53;20.50;99.90
18126;DHT22;53956;52.442;13.284;2023-08-06T17:25:20;20.50;99.90
18126;DHT22;53956;52.442;13.284;2023-08-06T17:27:48;20.60;99.90
18126;DHT22;53956;52.442;13.284;2023-08-06T17:30:15;20.40;99.90
18126;DHT22;53956;52.442;13.284;2023-08-06T17:32:42;20.50;99.90
18126;DHT22;53956;52.442;13.284;2023-08-06T17:35:09;20.50;99.90
18126;DHT22;53956;52.442;13.284;2023-08-06T17:37:37;20.50;99.90
18126;DHT22;53956;52.442;13.284;2023-08-06T17:40:05;20.50;99.90
18126;DHT22;53956;52.442;13.284;2023-08-06T17:42:32;20.50;99.90
18126;DHT22;53956;52.442;13.284;2023-08-06T17:44:59;20.40;99.90
18126;DHT22;53956;52.442;13.284;2023-08-06T17:47:25;20.50;99.90
18126;DHT22;53956;52.442;13.284;2023-08-06T17:49:52;20.40;99.90
18126;DHT22;53956;52.442;13.284;2023-08-06T17:52:19;20.40;99.90
18126;DHT22;53956;52.442;13.284;2023-08-06T17:54:47;20.40;99.90
18126;DHT22;53956;52.442;13.284;2023-08-06T17:57:13;20.30;99.90
18126;DHT22;53956;52.442;13.284;2023-08-06T17:59:40;20.30;99.90
18126;DHT22;53956;52.442;13.284;2023-08-06T18:02:07;20.30;99.90
18126;DHT22;53956;52.442;13.284;2023-08-06T18:04:33;20.30;99.90
18126;DHT22;53956;52.442;13.284;2023-08-06T18:07:00;20.30;99.90
18126;DHT22;53956;52.442;13.284;2023-08-06T18:09:26;20.20;99.90
18126;DHT22;53956;52.442;13.284;2023-08-06T18:11:54;20.20;99.90
18126;DHT22;53956;52.442;13.284;2023-08-06T18:14:21;20.10;99.90
18126;DHT22;53956;52.442;13.284;2023-08-06T18:16:47;20.20;99.90
18126;DHT22;53956;52.442;13.284;2023-08-06T18:19:14;20.10;99.90
18126;DHT22;53956;52.442;13.284;2023-08-06T18:21:41;20.00;99.90
18126;DHT22;53956;52.442;13.284;2023-08-06T18:24:08;20.00;99.90
18126;DHT22;53956;52.442;13.284;2023-08-06T18:26:35;20.00;99.90
18126;DHT22;53956;52.442;13.284;2023-08-06T18:29:03;20.10;99.90
18126;DHT22;53956;52.442;13.284;2023-08-06T18:31:30;20.00;99.90
18126;DHT22;53956;52.442;13.284;2023-08-06T18:33:57;20.00;99.90
18126;DHT22;53956;52.442;13.284;2023-08-06T18:36:23;20.10;99.90
18126;DHT22;53956;52.442;13.284;2023-08-06T18:38:50;20.10;99.90
18126;DHT22;53956;52.442;13.284;2023-08-06T18:41:17;20.00;99.90
18126;DHT22;53956;52.442;13.284;2023-08-06T18:43:44;20.00;99.90
18126;DHT22;53956;52.442;13.284;2023-08-06T18:46:12;20.00;99.90
18126;DHT22;53956;52.442;13.284;2023-08-06T18:48:39;20.10;99.90
18126;DHT22;53956;52.442;13.284;2023-08-06T18:51:05;20.10;99.90
18126;DHT22;53956;52.442;13.284;2023-08-06T18:53:32;20.10;99.90
18126;DHT22;53956;52.442;13.284;2023-08-06T18:55:58;20.10;99.90
18126;DHT22;53956;52.442;13.284;2023-08-06T18:58:25;20.10;99.90
18126;DHT22;53956;52.442;13.284;2023-08-06T19:00:55;20.10;99.90
18126;DHT22;53956;52.442;13.284;2023-08-06T19:03:24;20.10;99.90
18126;DHT22;53956;52.442;13.284;2023-08-06T19:05:51;20.20;99.90
18126;DHT22;53956;52.442;13.284;2023-08-06T19:08:18;20.10;99.90
18126;DHT22;53956;52.442;13.284;2023-08-06T19:10:45;20.10;99.90
18126;DHT22;53956;52.442;13.284;2023-08-06T19:13:12;20.20;99.90
18126;DHT22;53956;52.442;13.284;2023-08-06T19:15:44;20.20;99.90
18126;DHT22;53956;52.442;13.284;2023-08-06T19:18:11;20.10;99.90
18126;DHT22;53956;52.442;13.284;2023-08-06T19:20:42;20.10;99.90
18126;DHT22;53956;52.442;13.284;2023-08-06T19:23:09;20.10;99.90
18126;DHT22;53956;52.442;13.284;2023-08-06T19:25:41;20.10;99.90
18126;DHT22;53956;52.442;13.284;2023-08-06T19:28:09;20.10;99.90
18126;DHT22;53956;52.442;13.284;2023-08-06T19:30:37;20.10;99.90
18126;DHT22;53956;52.442;13.284;2023-08-06T19:33:06;20.10;99.90
18126;DHT22;53956;52.442;13.284;2023-08-06T19:35:33;20.10;99.90
18126;DHT22;53956;52.442;13.284;2023-08-06T19:38:01;20.20;99.90
18126;DHT22;53956;52.442;13.284;2023-08-06T19:40:27;20.20;99.90
18126;DHT22;53956;52.442;13.284;2023-08-06T19:42:54;20.10;99.90
18126;DHT22;53956;52.442;13.284;2023-08-06T19:45:21;20.10;99.90
18126;DHT22;53956;52.442;13.284;2023-08-06T19:47:48;20.10;99.90
18126;DHT22;53956;52.442;13.284;2023-08-06T19:50:15;20.10;99.90
18126;DHT22;53956;52.442;13.284;2023-08-06T19:52:41;20.10;99.90
18126;DHT22;53956;52.442;13.284;2023-08-06T19:55:09;20.20;99.90
18126;DHT22;53956;52.442;13.284;2023-08-06T19:57:36;20.00;99.90
18126;DHT22;53956;52.442;13.284;2023-08-06T20:00:03;20.10;99.90
18126;DHT22;53956;52.442;13.284;2023-08-06T20:02:38;20.20;99.90
18126;DHT22;53956;52.442;13.284;2023-08-06T20:05:05;20.10;99.90
18126;DHT22;53956;52.442;13.284;2023-08-06T20:07:32;20.30;99.90
18126;DHT22;53956;52.442;13.284;2023-08-06T20:09:58;20.10;99.90
18126;DHT22;53956;52.442;13.284;2023-08-06T20:12:26;20.10;99.90
18126;DHT22;53956;52.442;13.284;2023-08-06T20:14:53;20.20;99.90
18126;DHT22;53956;52.442;13.284;2023-08-06T20:17:19;20.10;99.90
18126;DHT22;53956;52.442;13.284;2023-08-06T20:19:46;20.00;99.90
18126;DHT22;53956;52.442;13.284;2023-08-06T20:22:13;20.00;99.90
18126;DHT22;53956;52.442;13.284;2023-08-06T20:24:40;20.00;99.90
18126;DHT22;53956;52.442;13.284;2023-08-06T20:27:06;20.00;99.90
18126;DHT22;53956;52.442;13.284;2023-08-06T20:29:35;20.00;99.90
18126;DHT22;53956;52.442;13.284;2023-08-06T20:32:02;20.00;99.90
18126;DHT22;53956;52.442;13.284;2023-08-06T20:34:29;20.00;99.90
18126;DHT22;53956;52.442;13.284;2023-08-06T20:36:55;19.90;99.90
18126;DHT22;53956;52.442;13.284;2023-08-06T20:39:23;20.00;99.90
18126;DHT22;53956;52.442;13.284;2023-08-06T20:41:50;19.90;99.90
18126;DHT22;53956;52.442;13.284;2023-08-06T20:44:17;19.90;99.90
18126;DHT22;53956;52.442;13.284;2023-08-06T20:46:45;19.90;99.90
18126;DHT22;53956;52.442;13.284;2023-08-06T20:49:11;19.90;99.90
18126;DHT22;53956;52.442;13.284;2023-08-06T20:51:38;19.90;99.90
18126;DHT22;53956;52.442;13.284;2023-08-06T20:54:04;19.90;99.90
18126;DHT22;53956;52.442;13.284;2023-08-06T20:56:31;19.90;99.90
18126;DHT22;53956;52.442;13.284;2023-08-06T20:58:58;19.80;99.90
18126;DHT22;53956;52.442;13.284;2023-08-06T21:01:24;19.90;99.90
18126;DHT22;53956;52.442;13.284;2023-08-06T21:03:52;19.80;99.90
18126;DHT22;53956;52.442;13.284;2023-08-06T21:06:19;19.80;99.90
18126;DHT22;53956;52.442;13.284;2023-08-06T21:08:45;19.80;99.90
18126;DHT22;53956;52.442;13.284;2023-08-06T21:11:12;19.80;99.90
18126;DHT22;53956;52.442;13.284;2023-08-06T21:13:41;19.80;99.90
18126;DHT22;53956;52.442;13.284;2023-08-06T21:16:08;19.80;99.90
18126;DHT22;53956;52.442;13.284;2023-08-06T21:18:35;19.70;99.90
18126;DHT22;53956;52.442;13.284;2023-08-06T21:21:04;19.80;99.90
18126;DHT22;53956;52.442;13.284;2023-08-06T21:23:31;19.70;99.90
18126;DHT22;53956;52.442;13.284;2023-08-06T21:25:59;19.60;99.90
18126;DHT22;53956;52.442;13.284;2023-08-06T21:28:27;19.60;99.90
18126;DHT22;53956;52.442;13.284;2023-08-06T21:30:54;19.60;99.90
18126;DHT22;53956;52.442;13.284;2023-08-06T21:33:23;19.60;99.90
18126;DHT22;53956;52.442;13.284;2023-08-06T21:35:49;19.60;99.90
18126;DHT22;53956;52.442;13.284;2023-08-06T21:38:18;19.70;99.90
18126;DHT22;53956;52.442;13.284;2023-08-06T21:40:44;19.50;99.90
18126;DHT22;53956;52.442;13.284;2023-08-06T21:43:11;19.50;99.90
18126;DHT22;53956;52.442;13.284;2023-08-06T21:45:37;19.50;99.90
18126;DHT22;53956;52.442;13.284;2023-08-06T21:48:04;19.50;99.90
18126;DHT22;53956;52.442;13.284;2023-08-06T21:50:32;19.50;99.90
18126;DHT22;53956;52.442;13.284;2023-08-06T21:52:59;19.50;99.90
18126;DHT22;53956;52.442;13.284;2023-08-06T21:55:31;19.40;99.90
18126;DHT22;53956;52.442;13.284;2023-08-06T21:57:58;19.40;99.90
18126;DHT22;53956;52.442;13.284;2023-08-06T22:00:25;19.40;99.90
18126;DHT22;53956;52.442;13.284;2023-08-06T22:02:52;19.50;99.90
18126;DHT22;53956;52.442;13.284;2023-08-06T22:05:18;19.40;99.90